Previous Day
Next Day
Current Day
SHEF ID: FVSO2 FAIRVIEW
STATION TYPE: Mesonet
PRECIP AIR-TEMP WIND-DIRWIND-SPEED REL-HUMID SOLAR-RAD
in F deg mph % W/m2
Raw-Meson Raw-Meson Raw-Meson Raw-Meson Raw-Meson Raw-Meson
(US/Central)
06/06 00:00 0.00 66.97 161.25 5.15 93.50 0.00
06/06 01:00 0.00 65.71 169.75 4.53 96.00 0.00
06/06 02:00 0.00 65.48 153.75 6.20 97.50 0.00
06/06 03:00 0.00 64.58 164.75 4.92 97.25 0.00
06/06 04:00 0.00 63.37 164.00 4.81 95.25 0.00
06/06 05:00 0.00 61.88 139.50 3.07 96.50 0.00
06/06 06:00 0.00 61.03 137.00 5.31 97.75 0.00
06/06 07:00 0.00 61.16 150.00 5.65 98.75 15.75
06/06 08:00 0.00 62.38 138.50 5.59 99.00 81.25
06/06 09:00 0.00 64.49 155.75 6.54 99.75 149.25
06/06 10:00 0.00 68.59 149.25 8.78 91.25 314.50
06/06 11:00 0.00 73.89 145.50 8.05 80.25 462.50
06/06 12:00 0.00 78.35 155.50 8.50 67.00 541.50
06/06 13:00 0.00 82.31 150.00 8.00 58.25 764.00
06/06 14:00 0.00 84.61 149.75 9.28 54.75 811.25
06/06 15:00 0.00 83.84 152.75 8.83 57.00 481.50
06/06 16:00 0.00 74.89 177.50 10.57 71.25 142.75
06/06 17:00 0.00 71.20 137.25 8.89 76.50 62.75
06/06 18:00 0.00 71.19 142.50 7.38 85.50 109.75
06/06 19:00 0.00 74.03 149.75 8.55 81.75 244.50
06/06 20:00 0.00 74.75 140.00 10.46 78.50 198.50
06/06 21:00 0.00 71.47 136.25 9.17 84.25 29.25
06/06 22:00 0.00 70.39 137.50 7.89 89.75 0.00
06/06 23:00 ---- 69.80 140.50 6.93 92.50 0.00